SEA weather

Seattle Tacoma International Airport
Seattle, Washington, United States

Public forecast

Using degrees Fahrenheit for public forecast. Weather courtesy of forecast.io.

METAR (pilot weather report)

Retrieved 2018/06/24 05:53 UTC (33 minutes ago):

KSEA 240553Z 34005KT 10SM CLR 18/12 A3013 RMK AO2 SLP210 T01780117 10222 20178 58004

TAF (pilot weather forecast)

Retrieved 2018/06/24 06:42 UTC (0 seconds ago):

TAF KSEA 240539Z 2406/2512 VRB03KT P6SM SKC FM242000 33007KT P6SM SCT050 SCT120 BKN200 FM250300 21007KT P6SM BKN040 BKN120 FM250500 18008KT P6SM -RA OVC040